Latest Weather Observations for Hay Airport

IDN60801

Issued at 9:32 pm EST Thursday 22 August 2019 (issued every 10 minutes, with the page automatically refreshed every 10 minutes)

About weather observations | Map of weather stations | Latest weather observations for NSW | Other Formats
Station Details ID: 075019 Name: HAY AIRPORT AWS Lat: -34.54 Lon: 144.83 Height: 92.0 m
Data from the previous 72 hours. | See also: Recent months at Hay Airport
Date/Time
EST
Temp
°C
App
Temp
°C
Dew
Point
°C
Rel
Hum
%
Delta-T
°C
Wind Press
QNH
hPa
Press
MSL
hPa
Rain since
9am
mm
Dir  Spd
km/h
Gust
km/h
Spd
kts
Gust
kts
22/09:30pm 5.7 1.5 1.8 76 1.6 SSW 13 17 7 9 1026.2 1026.3 0.0
22/09:00pm 6.5 2.0 2.0 73 1.8 SW 15 19 8 10 1026.0 1026.1 0.0
22/08:30pm 6.4 2.2 1.5 71 2.0 SSW 13 15 7 8 1026.1 1026.2 0.0
22/08:00pm 7.9 4.1 1.5 64 2.6 S 11 13 6 7 1026.0 1026.1 0.0
22/07:30pm 9.7 4.7 1.6 57 3.4 S 17 19 9 10 1025.6 1025.7 0.0
22/07:00pm 11.4 6.4 1.6 51 4.1 S 17 22 9 12 1025.5 1025.6 0.0
22/06:30pm 12.0 7.1 1.9 50 4.3 S 17 26 9 14 1024.8 1024.9 0.0
22/06:00pm 13.2 7.5 2.7 49 4.6 SSW 22 32 12 17 1024.3 1024.4 0.0
22/05:30pm 15.0 9.0 3.5 46 5.3 SSW 24 33 13 18 1023.9 1024.0 0.0
22/05:00pm 15.8 9.1 3.6 44 5.6 SSW 28 37 15 20 1023.6 1023.7 0.0
22/04:30pm 16.3 8.8 3.7 43 5.8 SSW 32 43 17 23 1023.3 1023.4 0.0
22/04:00pm 16.8 9.3 4.2 43 5.9 SW 33 44 18 24 1023.2 1023.3 0.0
22/03:30pm 17.0 9.7 4.3 43 6.0 SSW 32 44 17 24 1023.0 1023.1 0.0
22/03:00pm 16.4 8.8 4.1 44 5.7 SW 33 46 18 25 1022.8 1022.9 0.0
22/02:30pm 17.2 9.9 5.5 46 5.7 SW 33 44 18 24 1022.7 1022.8 0.0
22/02:00pm 16.7 10.0 5.6 48 5.3 SW 30 41 16 22 1022.9 1023.0 0.0
22/01:30pm 16.9 9.5 5.2 46 5.6 SW 33 46 18 25 1023.1 1023.2 0.0
22/01:00pm 16.0 8.9 6.2 52 4.8 SW 33 48 18 26 1023.4 1023.5 0.0
22/12:30pm 15.3 7.4 6.3 55 4.4 SW 37 48 20 26 1023.6 1023.7 0.0
22/12:00pm 15.1 8.1 6.9 58 4.0 SW 33 41 18 22 1023.9 1024.0 0.0
22/11:30am 14.7 7.0 7.0 60 3.8 SW 37 50 20 27 1024.3 1024.4 0.0
22/11:00am 14.2 6.9 7.0 62 3.5 SW 35 50 19 27 1024.3 1024.4 0.0
22/10:30am 14.4 6.8 7.7 64 3.3 SW 37 46 20 25 1024.2 1024.3 0.0
22/10:00am 13.7 6.6 8.1 69 2.8 WSW 35 46 19 25 1023.9 1024.0 0.0
22/09:30am 12.8 5.0 8.1 73 2.3 WSW 39 48 21 26 1023.7 1023.8 0.0
22/09:00am 12.0 4.3 8.5 79 1.7 WSW 39 52 21 28 1023.6 1023.7 0.0
22/08:30am 11.2 4.8 8.4 83 1.4 WSW 32 41 17 22 1023.5 1023.6 0.0
22/08:00am 9.7 4.8 8.3 91 0.7 WSW 24 33 13 18 1023.1 1023.2 0.0
22/07:30am 8.7 4.7 8.3 97 0.2 W 19 24 10 13 1022.7 1022.8 0.0
22/07:00am 8.3 4.0 8.0 98 0.1 WSW 20 28 11 15 1022.3 1022.5 0.0
22/06:30am 8.6 3.6 8.2 97 0.2 WSW 24 32 13 17 1022.2 1022.4 0.0
22/06:00am 8.9 4.0 8.3 96 0.3 WSW 24 32 13 17 1022.0 1022.2 0.0
22/05:30am 9.2 3.9 8.4 95 0.4 WSW 26 33 14 18 1021.7 1021.8 0.0
22/05:00am 9.4 3.7 8.3 93 0.5 WSW 28 35 15 19 1021.6 1021.7 0.0
22/04:30am 10.2 4.2 8.5 89 0.8 WSW 30 39 16 21 1021.4 1021.5 0.0
22/04:00am 10.2 4.2 8.8 91 0.7 W 30 39 16 21 1021.5 1021.6 0.0
22/03:30am 10.0 3.7 8.8 92 0.6 W 32 39 17 21 1021.7 1021.8 0.0
22/03:00am 9.8 3.8 8.7 93 0.5 W 30 41 16 22 1022.0 1022.2 0.0
22/02:30am 9.9 4.3 8.7 92 0.6 W 28 35 15 19 1022.0 1022.2 0.0
22/02:00am 10.1 5.2 8.5 90 0.8 W 24 33 13 18 1022.1 1022.3 0.0
22/01:30am 10.6 5.8 8.7 88 0.9 W 24 33 13 18 1022.2 1022.4 0.0
22/01:00am 10.8 6.0 8.7 87 1.0 W 24 30 13 16 1022.2 1022.4 0.0
22/12:30am 11.1 6.3 8.8 86 1.1 W 24 32 13 17 1022.2 1022.4 0.0
22/12:00am 11.7 6.1 8.9 83 1.4 WSW 28 35 15 19 1022.6 1022.7 0.0
 
Date/Time
EST
Temp
°C
App
Temp
°C
Dew
Point
°C
Rel
Hum
%
Delta-T
°C
Wind Press
QNH
hPa
Press
MSL
hPa
Rain since
9am
mm
Dir  Spd
km/h
Gust
km/h
Spd
kts
Gust
kts
21/11:30pm 11.7 6.1 8.9 83 1.4 WSW 28 33 15 18 1022.8 1022.9 0.0
21/11:00pm 11.4 6.9 8.4 82 1.5 W 22 30 12 16 1022.9 1023.0 0.0
21/10:30pm 12.2 7.3 8.5 78 1.8 W 24 33 13 18 1022.7 1022.8 0.0
21/10:00pm 12.4 7.8 8.3 76 2.0 WSW 22 28 12 15 1023.1 1023.2 0.0
21/09:30pm 13.3 8.3 8.2 71 2.5 WSW 24 33 13 18 1023.0 1023.1 0.0
21/09:00pm 14.1 9.2 8.5 69 2.8 WSW 24 37 13 20 1022.9 1023.0 0.0
21/08:30pm 14.2 10.0 8.4 68 2.9 W 20 32 11 17 1022.7 1022.8 0.0
21/08:00pm 14.9 10.4 8.6 66 3.2 WSW 22 30 12 16 1022.8 1022.9 0.0
21/07:30pm 14.7 9.7 8.2 65 3.3 WSW 24 32 13 17 1022.8 1022.9 0.0
21/07:00pm 14.4 10.4 8.4 67 3.0 WSW 19 22 10 12 1022.7 1022.8 0.0
21/06:30pm 14.6 9.6 8.1 65 3.3 WSW 24 30 13 16 1022.4 1022.6 0.0
21/06:00pm 14.9 9.9 7.9 63 3.5 WSW 24 33 13 18 1022.1 1022.3 0.0
21/05:30pm 16.2 10.5 8.2 59 4.1 WSW 28 35 15 19 1021.8 1021.9 0.0
21/05:00pm 16.9 10.2 8.3 57 4.4 WSW 33 43 18 23 1021.7 1021.8 0.0
21/04:30pm 17.0 10.4 8.4 57 4.4 WSW 33 41 18 22 1021.7 1021.8 0.0
21/04:00pm 17.0 10.6 8.4 57 4.4 WSW 32 41 17 22 1021.8 1021.9 0.0
21/03:30pm 16.8 10.2 8.5 58 4.3 WSW 33 41 18 22 1022.1 1022.3 0.0
21/03:00pm 16.8 10.3 8.8 59 4.1 WSW 33 44 18 24 1022.2 1022.4 0.0
21/02:30pm 17.1 10.2 8.8 58 4.3 WSW 35 44 19 24 1022.3 1022.5 0.0
21/02:00pm 16.9 10.0 8.8 59 4.2 WSW 35 44 19 24 1022.7 1022.8 0.0
21/01:30pm 17.1 9.7 8.5 57 4.4 WSW 37 50 20 27 1022.8 1022.9 0.0
21/01:00pm 16.1 9.1 8.6 61 3.8 W 35 50 19 27 1023.2 1023.3 0.0
21/12:30pm 16.6 10.2 9.5 63 3.7 WSW 33 46 18 25 1023.7 1023.8 0.0
21/12:00pm 15.3 8.4 8.8 65 3.3 WSW 35 46 19 25 1024.3 1024.4 0.0
21/11:30am 15.0 8.5 8.9 67 3.1 WSW 33 43 18 23 1024.7 1024.8 0.0
21/11:00am 14.3 7.4 8.9 70 2.7 WSW 35 44 19 24 1024.9 1025.0 0.0
21/10:30am 13.8 6.5 8.6 71 2.6 WSW 37 48 20 26 1025.1 1025.2 0.0
21/10:00am 14.0 7.1 8.8 71 2.6 WSW 35 46 19 25 1024.9 1025.0 0.0
21/09:30am 13.0 6.7 8.9 76 2.1 W 32 41 17 22 1024.8 1024.9 0.0
21/09:00am 12.3 6.3 8.6 78 1.8 W 30 39 16 21 1024.8 1024.9 0.0
21/08:30am 11.9 6.7 8.7 81 1.6 W 26 39 14 21 1024.7 1024.8 0.0
21/08:00am 11.6 6.0 8.6 82 1.5 W 28 39 15 21 1024.4 1024.5 0.0
21/07:30am 11.3 6.8 8.5 83 1.4 W 22 30 12 16 1024.2 1024.3 0.0
21/07:00am 10.7 6.5 8.1 84 1.3 W 20 26 11 14 1023.9 1024.0 0.0
21/06:30am 11.5 6.5 8.2 80 1.6 W 24 35 13 19 1023.9 1024.0 0.0
21/06:00am 11.5 6.6 8.4 81 1.5 W 24 30 13 16 1023.7 1023.8 0.0
21/05:30am 11.4 6.5 8.4 82 1.5 W 24 30 13 16 1023.9 1024.0 0.0
21/05:00am 11.1 6.9 8.1 82 1.5 W 20 28 11 15 1024.3 1024.4 0.0
21/04:30am 11.0 6.3 7.9 81 1.5 W 22 30 12 16 1024.2 1024.3 0.0
21/04:00am 10.8 6.1 7.9 82 1.4 W 22 30 12 16 1024.2 1024.3 0.0
21/03:30am 10.5 5.8 7.6 82 1.4 W 22 28 12 15 1024.2 1024.3 0.0
21/03:00am 9.6 5.7 7.2 85 1.1 W 17 20 9 11 1024.4 1024.5 0.0
21/02:30am 9.6 5.3 6.9 83 1.3 W 19 22 10 12 1024.6 1024.7 0.0
21/02:00am 10.0 5.6 6.7 80 1.5 W 19 22 10 12 1025.1 1025.2 0.0
21/01:30am 11.1 5.4 6.8 75 2.0 W 26 33 14 18 1025.3 1025.4 0.0
21/01:00am 11.9 5.4 6.6 70 2.5 W 30 43 16 23 1025.4 1025.5 0.0
21/12:30am 11.4 6.8 6.3 71 2.4 W 20 26 11 14 1025.5 1025.6 0.0
21/12:00am 12.0 7.0 6.5 69 2.6 W 22 28 12 15 1025.6 1025.7 0.0
 
Date/Time
EST
Temp
°C
App
Temp
°C
Dew
Point
°C
Rel
Hum
%
Delta-T
°C
Wind Press
QNH
hPa
Press
MSL
hPa
Rain since
9am
mm
Dir  Spd
km/h
Gust
km/h
Spd
kts
Gust
kts
20/11:30pm 13.0 6.9 6.6 65 3.1 W 28 35 15 19 1025.9 1026.0 0.0
20/11:00pm 13.7 6.8 6.6 62 3.4 W 32 41 17 22 1025.9 1026.0 0.0
20/10:30pm 14.0 7.1 6.4 60 3.7 W 32 41 17 22 1025.9 1026.0 0.0
20/10:00pm 14.3 6.0 5.9 57 4.0 WSW 39 50 21 27 1026.0 1026.1 0.0
20/09:45pm 14.6 6.6 5.7 55 4.3 W 37 57 20 31 1026.0 1026.1 0.0
20/09:30pm 14.3 7.3 5.9 57 4.0 W 32 43 17 23 1026.0 1026.1 0.0
20/09:00pm 14.2 8.0 6.1 58 3.9 W 28 41 15 22 1026.1 1026.2 0.0
20/08:30pm 13.5 8.0 6.1 61 3.5 W 24 33 13 18 1026.1 1026.2 0.0
20/08:00pm 13.4 8.9 6.0 61 3.5 W 19 24 10 13 1026.1 1026.2 0.0
20/07:30pm 13.8 9.3 6.2 60 3.6 W 19 26 10 14 1026.1 1026.2 0.0
20/07:00pm 14.0 9.5 6.1 59 3.8 W 19 24 10 13 1026.4 1026.5 0.0
20/06:30pm 14.2 9.8 5.0 54 4.3 WNW 17 24 9 13 1026.3 1026.4 0.0
20/06:00pm 14.2 9.2 4.8 53 4.4 WNW 20 26 11 14 1026.2 1026.3 0.0
20/05:30pm 15.0 8.8 4.4 49 4.9 W 26 33 14 18 1026.1 1026.2 0.0
20/05:00pm 15.8 9.6 4.2 46 5.4 W 26 39 14 21 1026.1 1026.2 0.0
20/04:30pm 16.2 9.2 4.3 45 5.6 W 30 41 16 22 1026.2 1026.3 0.0
20/04:00pm 16.5 9.3 4.9 46 5.5 W 32 43 17 23 1026.2 1026.3 0.0
20/03:30pm 16.7 9.9 5.0 46 5.6 WNW 30 41 16 22 1026.1 1026.2 0.0
20/03:00pm 16.1 9.4 5.4 49 5.1 W 30 41 16 22 1026.4 1026.5 0.0
20/02:30pm 16.1 9.4 5.4 49 5.1 W 30 39 16 21 1026.7 1026.8 0.0
20/02:00pm 15.8 9.1 5.7 51 4.8 W 30 41 16 22 1027.2 1027.3 0.0
20/01:30pm 14.6 7.8 5.1 53 4.5 W 30 44 16 24 1027.5 1027.6 0.0
20/01:00pm 14.1 7.3 5.2 55 4.2 W 30 39 16 21 1028.1 1028.2 0.0
20/12:30pm 14.0 6.9 5.4 56 4.1 W 32 41 17 22 1028.6 1028.7 0.0
20/12:00pm 14.2 7.4 5.3 55 4.2 WSW 30 39 16 21 1029.1 1029.2 0.0
20/11:30am 13.4 7.0 5.3 58 3.8 WSW 28 41 15 22 1029.5 1029.6 0.0
20/11:00am 13.1 7.1 5.3 59 3.6 WSW 26 35 14 19 1029.7 1029.8 0.0
20/10:30am 12.0 5.8 6.3 68 2.7 WSW 28 35 15 19 1029.9 1030.0 0.0
20/10:00am 11.5 5.4 6.6 72 2.3 W 28 37 15 20 1029.8 1029.9 0.0
20/09:30am 10.9 5.9 6.3 73 2.2 W 22 32 12 17 1029.8 1029.9 0.0
20/09:00am 9.5 6.2 6.6 82 1.3 WNW 13 17 7 9 1029.6 1029.7 0.0
20/08:30am 7.7 3.8 5.5 86 1.0 WNW 15 20 8 11 1029.8 1029.9 0.0
20/08:00am 7.1 4.0 5.4 89 0.8 WNW 11 15 6 8 1029.5 1029.6 0.0
20/07:30am 5.0 2.0 4.1 94 0.4 NW 9 13 5 7 1029.3 1029.4 0.0
20/07:00am 4.0 0.4 3.0 93 0.4 WNW 11 13 6 7 1029.0 1029.1 0.0
20/06:30am 4.5 0.7 3.8 95 0.3 W 13 20 7 11 1029.0 1029.1 0.0
20/06:00am 3.7 -0.3 2.8 94 0.4 WNW 13 17 7 9 1028.9 1029.0 0.0
20/05:30am 3.9 -0.5 2.9 93 0.4 WNW 15 19 8 10 1028.7 1028.8 0.0
20/05:00am 3.3 -0.8 2.1 92 0.5 WNW 13 15 7 8 1028.6 1028.7 0.0
20/04:30am 3.8 -0.2 2.6 92 0.5 W 13 17 7 9 1028.5 1028.6 0.0
20/04:00am 4.2 -0.2 2.9 91 0.5 W 15 20 8 11 1028.5 1028.6 0.0
20/03:30am 4.5 0.1 2.8 89 0.7 W 15 19 8 10 1028.6 1028.7 0.0
20/03:00am 4.6 -0.2 2.8 88 0.7 W 17 20 9 11 1028.9 1029.0 0.0
20/02:30am 4.4 0.0 2.8 89 0.7 W 15 19 8 10 1029.0 1029.1 0.0
20/02:00am 4.5 -0.4 2.2 85 0.9 W 17 20 9 11 1029.3 1029.4 0.0
20/01:30am 5.0 0.2 2.5 84 1.0 WNW 17 20 9 11 1029.4 1029.5 0.0
20/01:00am 5.1 0.6 2.3 82 1.1 W 15 19 8 10 1029.3 1029.4 0.0
20/12:30am 5.5 1.0 2.2 79 1.3 WNW 15 19 8 10 1029.3 1029.4 0.0
20/12:00am 5.9 1.4 2.4 78 1.4 WNW 15 20 8 11 1029.2 1029.3 0.0
 
Date/Time
EST
Temp
°C
App
Temp
°C
Dew
Point
°C
Rel
Hum
%
Delta-T
°C
Wind Press
QNH
hPa
Press
MSL
hPa
Rain since
9am
mm
Dir  Spd
km/h
Gust
km/h
Spd
kts
Gust
kts
19/11:30pm 5.3 0.7 1.6 77 1.5 WNW 15 17 8 9 1028.9 1029.0 0.0
19/11:00pm 6.2 1.6 1.7 73 1.8 WNW 15 19 8 10 1028.7 1028.8 0.0
19/10:30pm 5.1 0.9 1.6 78 1.4 WNW 13 17 7 9 1028.7 1028.8 0.0
19/10:00pm 4.1 -0.3 0.3 76 1.4 NW 13 15 7 8 1028.4 1028.5 0.0

Other formats

Comma delimited format used in spreadsheet applications
http://www.bom.gov.au/fwo/IDN60801/IDN60801.94702.axf

JavaScript Object Notation format (JSON) in row-major order
http://www.bom.gov.au/fwo/IDN60801/IDN60801.94702.json

Data quality

Most of these data are generated automatically and are frequently updated. Quality checks on data are not normally performed. It is possible for incorrect values to appear. Refer to information at About Latest Weather Observations and please check the disclaimer before using these data.